Time;durP1;ratioP1;P1;durP2;ratioP2;P2;SDS_P1;SDS_P2;PMS_P1;PMS_P2;Temp;Humidity;BMP_temperature;BMP_pressure;BME280_temperature;BME280_humidity;BME280_pressure;Samples;Min_cycle;Max_cycle;Signal;HPM_P1;HPM_P2
2021/05/29 00:01:53;;;;;;;10.30;2.38;;;39.00;14.60;;;;;;5037109;28;20147;-63
2021/05/29 00:04:20;;;;;;;18.63;2.20;;;39.10;14.50;;;;;;5038988;28;20151;-63
2021/05/29 00:06:46;;;;;;;11.18;1.90;;;39.10;14.70;;;;;;5044322;28;20081;-62
2021/05/29 00:09:13;;;;;;;11.27;2.20;;;39.00;14.60;;;;;;5038013;28;20116;-62
2021/05/29 00:11:39;;;;;;;14.55;2.38;;;39.00;14.10;;;;;;5039362;28;20154;-62
2021/05/29 00:14:06;;;;;;;12.52;2.40;;;38.90;14.40;;;;;;5041278;28;20084;-62
2021/05/29 00:16:32;;;;;;;9.23;1.60;;;38.90;14.70;;;;;;5038551;28;20073;-62
2021/05/29 00:18:59;;;;;;;14.30;2.25;;;38.90;14.20;;;;;;5037360;28;20106;-63
2021/05/29 00:21:25;;;;;;;13.57;2.30;;;39.00;14.40;;;;;;5041766;28;20100;-64
2021/05/29 00:23:52;;;;;;;17.05;1.83;;;38.70;14.20;;;;;;5042484;28;20066;-63
2021/05/29 00:26:18;;;;;;;11.77;1.70;;;38.80;14.20;;;;;;5041504;28;20078;-64
2021/05/29 00:28:46;;;;;;;9.95;1.75;;;38.90;14.20;;;;;;5040102;28;20094;-61
2021/05/29 00:31:13;;;;;;;7.45;1.77;;;38.90;14.00;;;;;;5040756;28;20132;-62
2021/05/29 00:33:40;;;;;;;11.70;1.80;;;38.90;13.90;;;;;;5040055;28;20078;-63
2021/05/29 00:36:06;;;;;;;12.13;1.63;;;38.80;13.70;;;;;;5043195;28;20077;-64
2021/05/29 00:38:33;;;;;;;17.20;2.25;;;38.80;13.60;;;;;;5046471;28;20081;-63
2021/05/29 00:40:59;;;;;;;12.85;2.10;;;38.50;13.70;;;;;;5046560;28;20570;-63
2021/05/29 00:43:26;;;;;;;12.85;2.13;;;38.40;13.80;;;;;;5042489;28;20093;-63
2021/05/29 00:45:52;;;;;;;16.10;2.55;;;38.40;13.90;;;;;;5039869;28;20399;-63
2021/05/29 00:48:19;;;;;;;8.95;1.98;;;38.40;14.10;;;;;;5037932;28;20157;-64
2021/05/29 00:50:48;;;;;;;11.20;2.30;;;38.30;13.80;;;;;;5041764;28;20070;-64
2021/05/29 00:53:18;;;;;;;12.00;1.98;;;38.20;14.10;;;;;;5047499;28;20554;-64
2021/05/29 00:55:46;;;;;;;12.95;2.50;;;38.10;14.00;;;;;;5042223;28;20086;-63
2021/05/29 00:58:12;;;;;;;12.13;2.50;;;38.00;14.10;;;;;;5040447;28;20109;-63
2021/05/29 01:00:39;;;;;;;18.30;1.70;;;38.00;14.20;;;;;;5042396;28;20577;-63
2021/05/29 01:03:05;;;;;;;14.52;2.35;;;37.90;14.10;;;;;;5040181;28;20080;-63
2021/05/29 01:05:32;;;;;;;16.08;2.10;;;37.80;14.40;;;;;;5045541;28;20234;-64
2021/05/29 01:07:59;;;;;;;9.82;2.13;;;37.80;14.10;;;;;;5045818;28;20070;-64
2021/05/29 01:10:25;;;;;;;15.77;1.92;;;37.60;14.20;;;;;;5043068;28;20076;-64
2021/05/29 01:12:54;;;;;;;9.32;2.50;;;37.60;14.40;;;;;;5040458;28;20074;-64
2021/05/29 01:15:21;;;;;;;9.40;1.92;;;37.60;14.30;;;;;;5047859;28;20168;-65
2021/05/29 01:17:48;;;;;;;12.45;2.17;;;37.40;14.20;;;;;;5043226;28;20164;-65
2021/05/29 01:20:16;;;;;;;28.92;3.65;;;37.30;14.20;;;;;;5047548;28;20114;-64
2021/05/29 01:22:51;;;;;;;24.33;3.58;;;37.10;14.70;;;;;;5048187;28;20093;-64
2021/05/29 01:25:35;;;;;;;15.70;2.75;;;37.10;14.40;;;;;;5043219;28;20081;-65
2021/05/29 01:28:32;;;;;;;16.35;2.45;;;37.00;14.40;;;;;;5040638;28;20119;-65
2021/05/29 01:31:08;;;;;;;30.08;2.90;;;36.90;14.10;;;;;;5038950;28;20110;-65
2021/05/29 01:33:36;;;;;;;18.47;2.37;;;36.80;14.30;;;;;;5040407;28;20074;-66
2021/05/29 01:36:11;;;;;;;18.25;2.55;;;36.70;14.70;;;;;;5040149;28;20165;-66
2021/05/29 01:38:39;;;;;;;14.90;2.90;;;36.60;14.80;;;;;;5039493;28;20096;-66
2021/05/29 01:41:07;;;;;;;16.80;3.08;;;36.50;14.90;;;;;;5038709;28;20436;-66
2021/05/29 01:43:39;;;;;;;31.38;3.72;;;36.40;15.00;;;;;;5043476;28;20430;-66
2021/05/29 01:46:06;;;;;;;30.48;3.85;;;36.40;14.80;;;;;;5057297;28;20078;-64
2021/05/29 01:48:37;;;;;;;20.27;3.15;;;36.40;14.90;;;;;;5044241;28;20082;-64
2021/05/29 01:51:04;;;;;;;27.40;4.72;;;36.20;14.90;;;;;;5047084;28;20609;-64
2021/05/29 01:53:32;;;;;;;31.25;5.25;;;36.10;14.80;;;;;;5042781;28;20081;-66
2021/05/29 01:56:00;;;;;;;29.33;5.28;;;36.00;15.00;;;;;;5039758;28;20074;-64
2021/05/29 01:58:27;;;;;;;17.02;3.03;;;35.70;14.80;;;;;;5041766;28;20081;-64
2021/05/29 02:00:54;;;;;;;38.42;11.35;;;35.50;14.60;;;;;;5040241;28;20098;-64
2021/05/29 02:03:20;;;;;;;24.20;5.05;;;35.40;14.80;;;;;;5036814;28;20590;-62
2021/05/29 02:05:47;;;;;;;21.65;3.30;;;35.30;14.70;;;;;;5041761;28;20073;-63
2021/05/29 02:08:14;;;;;;;20.13;4.57;;;35.10;14.70;;;;;;5038611;28;20075;-61
2021/05/29 02:10:44;;;;;;;31.20;9.52;;;35.00;14.60;;;;;;5055112;28;20077;-64
2021/05/29 02:13:20;;;;;;;29.80;8.60;;;34.90;14.60;;;;;;5039875;28;20523;-61
2021/05/29 02:15:47;;;;;;;51.80;12.13;;;34.80;14.40;;;;;;5042474;28;20457;-63
2021/05/29 02:18:13;;;;;;;44.60;7.82;;;34.70;14.50;;;;;;5041963;28;20097;-64
2021/05/29 02:20:51;;;;;;;29.83;8.13;;;34.60;14.60;;;;;;5040907;28;20106;-63
2021/05/29 02:23:23;;;;;;;31.20;7.88;;;34.50;14.90;;;;;;5043774;28;20087;-62
2021/05/29 02:25:52;;;;;;;36.08;9.80;;;34.30;15.10;;;;;;5040960;28;20117;-63
2021/05/29 02:28:19;;;;;;;43.42;7.97;;;34.20;15.30;;;;;;5042224;28;20446;-63
2021/05/29 02:30:48;;;;;;;38.70;10.50;;;34.00;15.30;;;;;;5040084;28;20133;-63
2021/05/29 02:33:17;;;;;;;36.92;7.18;;;34.00;15.40;;;;;;5040385;28;20077;-63
2021/05/29 02:35:43;;;;;;;45.08;9.00;;;33.90;15.40;;;;;;5038037;28;20077;-62
2021/05/29 02:38:10;;;;;;;37.50;7.00;;;33.80;15.50;;;;;;5043597;28;20073;-63
2021/05/29 02:40:37;;;;;;;36.35;5.97;;;33.70;15.40;;;;;;5043155;28;20571;-61
2021/05/29 02:43:04;;;;;;;35.05;5.75;;;33.70;15.30;;;;;;5038632;28;20163;-63
2021/05/29 02:45:30;;;;;;;40.83;8.70;;;33.60;15.40;;;;;;5040428;28;20085;-61
2021/05/29 02:47:57;;;;;;;38.55;4.90;;;33.50;15.40;;;;;;5043942;28;20085;-64
2021/05/29 02:50:25;;;;;;;30.25;4.10;;;33.40;15.70;;;;;;5038589;28;20077;-63
2021/05/29 02:52:51;;;;;;;26.45;3.97;;;33.40;15.80;;;;;;5042076;28;20069;-64
2021/05/29 02:55:22;;;;;;;50.13;7.05;;;33.30;15.80;;;;;;5035092;28;20082;-63
2021/05/29 02:57:55;;;;;;;31.70;3.88;;;33.20;15.90;;;;;;5037055;28;20428;-63
2021/05/29 03:00:23;;;;;;;50.90;5.22;;;33.10;15.90;;;;;;5038947;28;20077;-62
2021/05/29 03:02:51;;;;;;;33.88;4.35;;;33.00;15.90;;;;;;5038739;28;20088;-64
2021/05/29 03:05:17;;;;;;;40.22;7.00;;;33.00;15.80;;;;;;5038786;28;20151;-64
2021/05/29 03:07:46;;;;;;;38.25;4.85;;;32.90;15.90;;;;;;5038809;28;20096;-63
2021/05/29 03:10:14;;;;;;;28.15;3.80;;;32.80;15.40;;;;;;5040610;28;20081;-63
2021/05/29 03:12:41;;;;;;;24.73;5.32;;;32.70;15.40;;;;;;5042145;28;20085;-63
2021/05/29 03:15:10;;;;;;;29.40;4.55;;;32.70;15.20;;;;;;5040238;28;20519;-65
2021/05/29 03:17:37;;;;;;;18.55;2.92;;;32.30;30.30;;;;;;5040139;28;20449;-64
2021/05/29 03:20:08;;;;;;;31.13;4.28;;;32.50;15.80;;;;;;5040033;28;20115;-64
2021/05/29 03:22:35;;;;;;;28.73;3.95;;;32.50;14.90;;;;;;5043482;28;20596;-64
2021/05/29 03:25:02;;;;;;;16.63;3.10;;;32.50;14.80;;;;;;5039326;28;20539;-64
2021/05/29 03:27:29;;;;;;;20.65;3.53;;;32.40;15.00;;;;;;5039992;28;20089;-64
2021/05/29 03:29:55;;;;;;;25.58;4.03;;;32.40;15.00;;;;;;5042072;28;20100;-64
2021/05/29 03:32:22;;;;;;;29.63;4.13;;;32.30;15.10;;;;;;5042662;28;20081;-64
2021/05/29 03:34:48;;;;;;;28.85;4.30;;;32.20;15.20;;;;;;5043190;28;20093;-64
2021/05/29 03:37:15;;;;;;;29.63;5.50;;;32.20;15.40;;;;;;5057364;28;20081;-64
2021/05/29 03:39:42;;;;;;;38.78;5.85;;;32.00;15.70;;;;;;5038787;28;20074;-64
2021/05/29 03:42:09;;;;;;;40.75;5.13;;;31.90;15.90;;;;;;5041140;28;20133;-64
2021/05/29 03:44:35;;;;;;;37.17;4.90;;;31.90;16.00;;;;;;5041457;28;20102;-64
2021/05/29 03:47:02;;;;;;;32.08;4.30;;;31.80;16.20;;;;;;5041939;28;20216;-64
2021/05/29 03:49:29;;;;;;;32.13;4.55;;;31.80;16.30;;;;;;5040555;28;20093;-64
2021/05/29 03:51:55;;;;;;;36.40;4.32;;;31.70;16.30;;;;;;5044325;28;20088;-64
2021/05/29 03:54:22;;;;;;;33.60;6.20;;;31.70;16.30;;;;;;5040163;28;20112;-65
2021/05/29 03:56:48;;;;;;;39.08;8.38;;;31.70;16.40;;;;;;5040377;28;20081;-64
2021/05/29 03:59:16;;;;;;;34.80;9.73;;;31.60;16.50;;;;;;5040265;28;20165;-65
2021/05/29 04:01:43;;;;;;;41.58;9.15;;;31.60;16.60;;;;;;5039817;28;20216;-64
2021/05/29 04:04:11;;;;;;;49.70;9.82;;;31.50;16.60;;;;;;5042275;28;20074;-65
2021/05/29 04:06:39;;;;;;;45.72;13.50;;;31.40;16.70;;;;;;5041410;28;20162;-64
2021/05/29 04:09:08;;;;;;;65.47;17.33;;;31.30;16.70;;;;;;5044408;28;20084;-65
2021/05/29 04:11:36;;;;;;;60.90;21.50;;;31.30;16.80;;;;;;5042708;28;20428;-64
2021/05/29 04:14:04;;;;;;;52.83;24.20;;;31.20;16.90;;;;;;5042130;28;20101;-63
2021/05/29 04:16:31;;;;;;;54.50;26.73;;;31.20;16.90;;;;;;5040346;28;21491;-64
2021/05/29 04:18:58;;;;;;;59.28;29.73;;;31.10;17.10;;;;;;5040797;28;20109;-65
2021/05/29 04:21:25;;;;;;;56.78;28.30;;;31.10;16.60;;;;;;5042236;28;20124;-65
2021/05/29 04:23:52;;;;;;;57.70;29.15;;;31.00;16.20;;;;;;5040837;28;20097;-64
2021/05/29 04:26:18;;;;;;;71.50;31.08;;;31.00;16.60;;;;;;5042606;28;20082;-65
2021/05/29 04:28:45;;;;;;;61.92;31.73;;;31.00;16.50;;;;;;5040747;28;20108;-64
2021/05/29 04:31:12;;;;;;;71.10;31.10;;;30.90;16.70;;;;;;5040303;28;20085;-65
2021/05/29 04:33:38;;;;;;;63.72;28.75;;;30.90;16.60;;;;;;5042664;28;20072;-65
2021/05/29 04:36:05;;;;;;;65.55;28.98;;;30.70;16.80;;;;;;5041029;28;20082;-65
2021/05/29 04:38:32;;;;;;;62.90;28.55;;;30.60;17.00;;;;;;5040974;28;20073;-65
2021/05/29 04:40:59;;;;;;;58.80;28.52;;;30.60;17.20;;;;;;5037544;28;20275;-65
2021/05/29 04:43:26;;;;;;;61.15;31.42;;;30.40;17.10;;;;;;5039504;28;20502;-65
2021/05/29 04:45:52;;;;;;;66.22;32.92;;;30.20;17.20;;;;;;5041773;28;20111;-66
2021/05/29 04:48:19;;;;;;;69.15;32.63;;;30.20;17.30;;;;;;5042236;28;20077;-65
2021/05/29 04:53:30;;;;;;;70.70;35.97;;;30.10;17.30;;;;;;5041192;28;20088;-64
2021/05/29 04:56:00;;;;;;;71.40;37.03;;;30.00;17.30;;;;;;5040682;28;20077;-65
2021/05/29 04:58:28;;;;;;;80.75;39.72;;;29.90;17.30;;;;;;5042171;28;20081;-66
2021/05/29 05:00:54;;;;;;;81.95;40.97;;;29.90;17.10;;;;;;5040288;28;20098;-65
2021/05/29 05:03:21;;;;;;;75.15;42.90;;;29.90;17.40;;;;;;5041118;28;20120;-65
2021/05/29 05:05:48;;;;;;;71.72;42.70;;;29.80;17.40;;;;;;5038298;28;20152;-65
2021/05/29 05:08:15;;;;;;;92.60;46.88;;;29.70;17.10;;;;;;5038469;28;20156;-63
2021/05/29 05:10:41;;;;;;;90.22;46.60;;;29.70;17.10;;;;;;5041053;28;20482;-63
2021/05/29 05:13:08;;;;;;;85.82;47.95;;;29.60;17.10;;;;;;5041285;28;20534;-65
2021/05/29 05:15:35;;;;;;;81.30;47.15;;;29.50;17.10;;;;;;5042279;28;20438;-64
2021/05/29 05:18:02;;;;;;;77.45;46.83;;;29.50;17.10;;;;;;5045088;28;20073;-64
2021/05/29 05:20:28;;;;;;;78.60;46.13;;;29.40;17.10;;;;;;5041863;28;20196;-64
2021/05/29 05:22:55;;;;;;;75.68;44.75;;;29.40;17.40;;;;;;5043333;28;20082;-64
2021/05/29 05:25:21;;;;;;;74.95;42.53;;;29.40;17.40;;;;;;5043520;28;20224;-65
2021/05/29 05:27:48;;;;;;;80.90;42.55;;;29.30;17.00;;;;;;5042154;28;20075;-64
2021/05/29 05:30:15;;;;;;;75.28;38.50;;;29.30;16.80;;;;;;5044732;28;20414;-64
2021/05/29 05:32:43;;;;;;;69.68;35.97;;;29.20;17.20;;;;;;5041722;28;20070;-64
2021/05/29 05:35:14;;;;;;;64.40;32.38;;;29.30;17.30;;;;;;5043884;28;20073;-64
2021/05/29 05:37:42;;;;;;;60.92;25.60;;;29.20;17.20;;;;;;5045722;28;20090;-64
2021/05/29 05:40:09;;;;;;;54.58;25.83;;;29.10;17.00;;;;;;5044395;28;20070;-64
2021/05/29 05:42:37;;;;;;;48.75;21.15;;;29.10;17.30;;;;;;5043285;28;20104;-64
2021/05/29 05:45:08;;;;;;;42.72;16.45;;;29.10;17.30;;;;;;5041226;28;20069;-63
2021/05/29 05:47:34;;;;;;;45.05;15.00;;;29.00;17.60;;;;;;5038185;28;20176;-65
2021/05/29 05:50:01;;;;;;;36.97;14.57;;;29.00;17.80;;;;;;5042367;28;20082;-64
2021/05/29 05:52:27;;;;;;;49.85;17.83;;;28.90;17.90;;;;;;5043705;28;20092;-65
2021/05/29 05:54:54;;;;;;;41.85;18.10;;;28.90;17.70;;;;;;5044160;28;20423;-64
2021/05/29 05:57:21;;;;;;;50.70;19.00;;;28.80;17.80;;;;;;5041150;28;20080;-64
2021/05/29 05:59:47;;;;;;;61.45;22.00;;;28.90;18.10;;;;;;5045452;28;20081;-64
2021/05/29 06:02:14;;;;;;;66.50;21.75;;;28.90;18.50;;;;;;5043494;28;20101;-65
2021/05/29 06:04:40;;;;;;;56.97;24.85;;;28.80;18.30;;;;;;5045540;28;20070;-64
2021/05/29 06:07:07;;;;;;;57.42;25.38;;;28.70;18.40;;;;;;5043773;28;20077;-64
2021/05/29 06:09:33;;;;;;;61.70;24.00;;;28.70;18.70;;;;;;5042173;28;20077;-64
2021/05/29 06:12:00;;;;;;;47.85;21.00;;;28.70;18.90;;;;;;5040919;28;20164;-64
2021/05/29 06:19:57;;;;;;;46.63;21.88;;;28.60;19.40;;;;;;5041450;28;20164;-64
2021/05/29 06:22:23;;;;;;;50.25;19.38;;;28.50;19.70;;;;;;5040454;28;20151;-64
2021/05/29 06:24:50;;;;;;;50.05;18.02;;;28.50;19.80;;;;;;5041106;28;20085;-64
2021/05/29 06:27:16;;;;;;;44.30;14.00;;;28.40;19.90;;;;;;5039894;28;20077;-63
2021/05/29 06:29:43;;;;;;;55.42;13.95;;;28.40;19.80;;;;;;5042292;28;20124;-64
2021/05/29 06:32:12;;;;;;;29.85;13.00;;;28.30;19.70;;;;;;5039073;28;20073;-64
2021/05/29 06:34:41;;;;;;;26.83;12.48;;;28.20;19.80;;;;;;5041063;28;21584;-65
2021/05/29 06:37:07;;;;;;;43.05;13.30;;;28.20;20.80;;;;;;5056326;28;20522;-64
2021/05/29 06:39:34;;;;;;;37.22;12.65;;;28.10;20.70;;;;;;5039918;28;20073;-64
2021/05/29 06:42:01;;;;;;;43.95;11.07;;;28.10;20.40;;;;;;5039526;28;20121;-65
2021/05/29 06:44:28;;;;;;;40.92;10.48;;;28.00;20.50;;;;;;5038412;28;20091;-64
2021/05/29 06:46:54;;;;;;;31.10;9.43;;;28.00;20.50;;;;;;5044362;28;20069;-64
2021/05/29 06:49:22;;;;;;;36.58;8.52;;;27.90;20.40;;;;;;5042387;28;20070;-64
2021/05/29 06:52:02;;;;;;;33.65;7.57;;;27.90;20.20;;;;;;5039893;28;20105;-64
2021/05/29 06:59:40;;;;;;;24.70;5.68;;;28.00;19.50;;;;;;5039590;28;20081;-64
2021/05/29 07:02:07;;;;;;;59.20;7.43;;;28.90;18.60;;;;;;5037266;28;20101;-65
2021/05/29 07:04:33;;;;;;;82.72;8.07;;;29.20;17.90;;;;;;5038001;28;20070;-65
2021/05/29 07:07:00;;;;;;;20.45;5.30;;;29.60;17.40;;;;;;5039696;28;20213;-65
2021/05/29 07:09:26;;;;;;;25.73;5.25;;;29.70;17.10;;;;;;5035651;28;20153;-66
2021/05/29 07:11:53;;;;;;;22.25;5.05;;;29.70;16.60;;;;;;5036379;28;20549;-66
2021/05/29 07:14:20;;;;;;;14.63;4.93;;;29.70;16.70;;;;;;5040393;28;20661;-64
2021/05/29 07:16:55;;;;;;;23.70;5.72;;;29.70;17.30;;;;;;5038166;28;20089;-64
2021/05/29 07:19:23;;;;;;;12.85;5.05;;;29.10;16.80;;;;;;5054978;28;20187;-64
2021/05/29 07:21:51;;;;;;;14.18;3.40;;;28.50;16.80;;;;;;5041880;28;20135;-66
2021/05/29 07:24:19;;;;;;;19.25;3.60;;;28.30;17.10;;;;;;5040622;28;20082;-64
2021/05/29 07:26:46;;;;;;;15.02;2.92;;;28.10;17.00;;;;;;5038443;28;20518;-63
2021/05/29 07:29:14;;;;;;;10.00;3.08;;;27.90;16.80;;;;;;5037971;28;20078;-63
2021/05/29 07:31:41;;;;;;;12.52;2.92;;;27.80;16.70;;;;;;5042531;28;20082;-64
2021/05/29 07:34:07;;;;;;;12.23;2.55;;;27.70;16.60;;;;;;5039136;28;20568;-64
2021/05/29 07:36:34;;;;;;;6.18;2.45;;;27.70;16.70;;;;;;5039771;28;20109;-65
2021/05/29 07:39:01;;;;;;;10.63;2.30;;;27.50;16.10;;;;;;5039283;28;20523;-65
2021/05/29 07:41:27;;;;;;;7.05;1.95;;;27.40;15.60;;;;;;5039380;28;20689;-65
2021/05/29 07:43:54;;;;;;;15.25;2.40;;;27.40;16.20;;;;;;5040280;28;20094;-65
2021/05/29 07:46:21;;;;;;;11.82;2.55;;;27.20;16.80;;;;;;5036606;28;20082;-65
2021/05/29 07:48:50;;;;;;;10.93;2.30;;;27.20;17.20;;;;;;5039478;28;20074;-65
2021/05/29 07:51:20;;;;;;;15.82;1.90;;;27.00;17.40;;;;;;5038258;28;20078;-65
2021/05/29 07:53:47;;;;;;;9.80;1.50;;;26.60;36.90;;;;;;5043433;28;20523;-65
2021/05/29 07:56:16;;;;;;;8.25;1.88;;;27.00;16.90;;;;;;5041287;28;20069;-65
2021/05/29 07:58:46;;;;;;;17.10;2.25;;;27.00;17.20;;;;;;5041210;28;20097;-65
2021/05/29 08:01:14;;;;;;;16.55;2.47;;;27.00;17.20;;;;;;5038914;28;20554;-65
2021/05/29 08:03:41;;;;;;;12.32;2.25;;;27.00;17.20;;;;;;5041119;28;20458;-65
2021/05/29 08:06:16;;;;;;;8.38;2.00;;;26.90;17.60;;;;;;5038099;28;20506;-65
2021/05/29 08:08:45;;;;;;;22.52;2.67;;;26.90;17.80;;;;;;5037659;28;20523;-64
2021/05/29 08:11:22;;;;;;;12.10;2.13;;;26.80;17.80;;;;;;5039071;28;20085;-64
2021/05/29 08:13:53;;;;;;;11.77;2.10;;;26.80;17.90;;;;;;5038976;28;20069;-65
2021/05/29 08:16:20;;;;;;;8.70;2.25;;;26.80;17.70;;;;;;5038203;28;20597;-65
2021/05/29 08:18:47;;;;;;;11.23;2.00;;;26.70;17.70;;;;;;5040052;28;20139;-64
2021/05/29 08:21:14;;;;;;;11.25;2.10;;;26.70;17.90;;;;;;5036082;28;20124;-64
2021/05/29 08:23:41;;;;;;;9.55;2.00;;;26.60;17.80;;;;;;5037241;28;20531;-65
2021/05/29 08:26:08;;;;;;;12.45;2.30;;;26.50;17.70;;;;;;5038813;28;20160;-64
2021/05/29 08:28:36;;;;;;;9.63;2.20;;;26.50;17.80;;;;;;5041759;28;20066;-64
2021/05/29 08:31:03;;;;;;;15.02;2.38;;;26.40;17.90;;;;;;5035305;28;20074;-64
2021/05/29 08:33:30;;;;;;;8.88;2.03;;;26.40;18.00;;;;;;5038536;28;20073;-64
2021/05/29 08:35:57;;;;;;;11.13;2.00;;;26.40;18.10;;;;;;5035307;28;20399;-64
2021/05/29 08:38:24;;;;;;;10.48;2.00;;;26.30;18.20;;;;;;5041455;28;20074;-64
2021/05/29 08:40:51;;;;;;;13.93;1.92;;;26.30;18.20;;;;;;5035334;28;20100;-65
2021/05/29 08:43:17;;;;;;;11.07;2.28;;;26.20;18.30;;;;;;5041205;28;20074;-64
2021/05/29 08:45:47;;;;;;;11.35;1.83;;;26.20;18.50;;;;;;5041456;28;20082;-64
2021/05/29 08:48:15;;;;;;;7.97;2.63;;;26.20;18.70;;;;;;5038512;28;20120;-64
2021/05/29 08:51:12;;;;;;;10.48;2.15;;;26.10;18.80;;;;;;5041360;28;20077;-65
2021/05/29 08:53:28;;;;;;;10.25;2.00;;;26.10;19.60;;;;;;5044617;28;20077;-64
2021/05/29 08:55:54;;;;;;;13.85;2.38;;;25.90;19.80;;;;;;5041303;28;20073;-64
2021/05/29 08:58:21;;;;;;;11.55;2.05;;;25.90;19.50;;;;;;5046386;28;20497;-64
2021/05/29 09:00:49;;;;;;;9.93;2.05;;;25.70;19.70;;;;;;5042190;28;20604;-63
2021/05/29 09:03:16;;;;;;;13.73;2.00;;;25.70;19.80;;;;;;5040571;28;20097;-64
2021/05/29 09:05:53;;;;;;;10.90;2.22;;;25.70;20.30;;;;;;5045207;28;20490;-63
2021/05/29 09:08:27;;;;;;;16.38;2.50;;;25.60;19.80;;;;;;5042392;28;20076;-64
2021/05/29 09:10:58;;;;;;;10.38;2.35;;;25.50;20.40;;;;;;5042537;28;20076;-64
2021/05/29 09:13:29;;;;;;;10.98;2.22;;;25.40;20.00;;;;;;5040740;28;20073;-64
2021/05/29 09:15:56;;;;;;;13.95;2.10;;;25.40;20.50;;;;;;5043417;28;20065;-64
2021/05/29 09:18:24;;;;;;;19.73;2.90;;;25.40;20.20;;;;;;5042485;28;20089;-64
2021/05/29 09:20:51;;;;;;;12.80;2.47;;;25.30;20.10;;;;;;5039545;28;20524;-64
2021/05/29 09:23:17;;;;;;;15.27;2.30;;;25.30;20.40;;;;;;5041462;28;20066;-64
2021/05/29 09:25:56;;;;;;;11.82;3.20;;;25.30;20.30;;;;;;5043437;28;20168;-64
2021/05/29 09:28:25;;;;;;;24.58;4.13;;;25.30;20.50;;;;;;5040905;28;20069;-64
2021/05/29 09:30:53;;;;;;;26.85;5.00;;;25.30;20.90;;;;;;5045733;28;20108;-64
2021/05/29 09:33:35;;;;;;;51.35;7.65;;;25.20;21.60;;;;;;5045936;28;20100;-64
2021/05/29 09:36:09;;;;;;;53.38;8.80;;;25.20;22.90;;;;;;5043235;28;20092;-64
2021/05/29 09:38:54;;;;;;;56.35;10.95;;;25.10;24.00;;;;;;5040279;28;20410;-64
2021/05/29 09:41:28;;;;;;;75.97;12.13;;;25.10;24.90;;;;;;5039780;28;20102;-64
2021/05/29 09:44:04;;;;;;;61.08;10.45;;;25.00;26.00;;;;;;5044399;28;20081;-65
2021/05/29 09:46:49;;;;;;;;;;;25.00;26.40;;;;;;5039692;28;20082;-64
2021/05/29 09:49:15;;;;;;;54.90;10.90;;;24.90;27.30;;;;;;5044369;28;19962;-64
2021/05/29 09:51:42;;;;;;;41.33;10.60;;;24.90;27.90;;;;;;5041759;28;20069;-64
2021/05/29 09:54:10;;;;;;;58.05;10.63;;;24.80;28.60;;;;;;5042238;28;20089;-64
2021/05/29 09:56:41;;;;;;;46.50;10.05;;;24.70;29.00;;;;;;5039927;28;20081;-64
2021/05/29 09:59:09;;;;;;;52.17;10.00;;;24.80;30.00;;;;;;5045459;28;20085;-64
2021/05/29 10:01:45;;;;;;;68.68;9.93;;;24.80;30.50;;;;;;5041425;28;20097;-63
2021/05/29 10:07:08;;;;;;;44.28;9.48;;;25.30;30.60;;;;;;5037450;28;20074;-63
2021/05/29 10:09:34;;;;;;;56.20;9.45;;;25.80;30.20;;;;;;5036995;28;20169;-64
2021/05/29 10:12:03;;;;;;;50.85;8.95;;;26.30;30.20;;;;;;5038332;28;20089;-63
2021/05/29 10:14:31;;;;;;;53.70;9.20;;;26.40;30.60;;;;;;5037952;28;20078;-63
2021/05/29 10:16:59;;;;;;;38.78;8.82;;;26.30;30.80;;;;;;5034970;28;20070;-64
2021/05/29 10:19:26;;;;;;;51.63;9.73;;;26.20;31.30;;;;;;5035878;28;20113;-64
2021/05/29 10:21:54;;;;;;;47.90;9.75;;;26.00;32.00;;;;;;5038357;28;20109;-64
2021/05/29 10:24:24;;;;;;;33.67;9.15;;;25.80;33.00;;;;;;5038308;28;20070;-64
2021/05/29 10:26:53;;;;;;;43.28;9.45;;;25.80;34.10;;;;;;5035249;28;20065;-64
2021/05/29 10:29:27;;;;;;;34.17;8.80;;;25.90;36.40;;;;;;5038164;28;20085;-64
2021/05/29 10:32:29;;;;;;;33.47;7.90;;;25.90;38.40;;;;;;5034959;28;20084;-63
2021/05/29 10:35:10;;;;;;;40.75;8.02;;;26.20;39.60;;;;;;5010974;28;20077;-63
2021/05/29 10:37:44;;;;;;;49.25;9.30;;;26.00;40.20;;;;;;5032899;28;20085;-64
2021/05/29 10:40:31;;;;;;;62.78;10.43;;;25.70;41.90;;;;;;5039448;28;20088;-63
2021/05/29 10:43:07;;;;;;;60.33;9.90;;;25.80;42.90;;;;;;5035931;28;20458;-63
2021/05/29 10:45:38;;;;;;;49.03;10.13;;;25.80;44.20;;;;;;5036716;28;20430;-63
2021/05/29 10:48:15;;;;;;;61.35;9.48;;;25.60;44.30;;;;;;5036801;28;20462;-63
2021/05/29 10:50:55;;;;;;;54.83;8.98;;;25.90;44.60;;;;;;5040159;28;20085;-63
2021/05/29 10:53:38;;;;;;;40.00;7.65;;;26.00;44.30;;;;;;5038418;28;20176;-63
2021/05/29 10:56:20;;;;;;;36.90;6.70;;;26.00;44.30;;;;;;5042056;28;20530;-63
2021/05/29 10:59:11;;;;;;;28.80;5.93;;;25.90;44.40;;;;;;5033167;28;20081;-63
2021/05/29 11:01:40;;;;;;;25.48;5.57;;;25.70;44.70;;;;;;5037878;28;20140;-63
2021/05/29 11:04:18;;;;;;;19.98;5.47;;;25.60;45.20;;;;;;5035118;28;20077;-62
2021/05/29 11:06:51;;;;;;;22.55;5.50;;;25.40;45.50;;;;;;5036889;28;20077;-64
2021/05/29 11:09:38;;;;;;;19.35;5.15;;;25.40;45.50;;;;;;5035997;28;20081;-63
2021/05/29 11:12:08;;;;;;;25.38;5.78;;;25.40;45.60;;;;;;5029056;28;20094;-63
2021/05/29 11:14:55;;;;;;;28.23;6.40;;;25.50;45.70;;;;;;5037379;28;20088;-63
2021/05/29 11:17:31;;;;;;;22.27;7.13;;;25.40;45.80;;;;;;5038499;28;20169;-63
2021/05/29 11:20:09;;;;;;;20.60;6.50;;;25.40;46.10;;;;;;5038322;28;20236;-63
2021/05/29 11:23:02;;;;;;;24.25;5.95;;;25.40;46.00;;;;;;5039759;28;20125;-63
2021/05/29 11:25:28;;;;;;;27.25;5.32;;;25.30;46.10;;;;;;5032169;28;20093;-63
2021/05/29 11:27:55;;;;;;;26.83;5.25;;;25.30;46.50;;;;;;5037540;28;20157;-63
2021/05/29 11:30:33;;;;;;;22.60;5.70;;;25.20;47.30;;;;;;5037441;28;20093;-64
2021/05/29 11:33:12;;;;;;;22.05;5.50;;;25.10;48.00;;;;;;5033613;28;20081;-64
2021/05/29 11:35:45;;;;;;;26.25;6.03;;;25.10;48.90;;;;;;5035771;28;20540;-63
2021/05/29 11:38:22;;;;;;;23.83;5.72;;;25.00;49.60;;;;;;5033526;28;20081;-64
2021/05/29 11:41:08;;;;;;;20.35;5.22;;;25.00;50.20;;;;;;5039899;28;20093;-63
2021/05/29 11:43:48;;;;;;;18.55;6.03;;;25.00;50.50;;;;;;5033128;28;20431;-64
2021/05/29 11:46:22;;;;;;;20.00;4.93;;;24.90;51.00;;;;;;5036607;28;20096;-64
2021/05/29 11:48:58;;;;;;;25.70;5.20;;;24.80;51.90;;;;;;5034424;28;20600;-63
2021/05/29 11:51:27;;;;;;;17.38;4.35;;;24.70;52.30;;;;;;5035679;28;20101;-63
2021/05/29 11:53:55;;;;;;;15.75;4.20;;;24.40;53.70;;;;;;5040911;28;20086;-62
2021/05/29 11:56:33;;;;;;;15.75;3.90;;;24.60;54.30;;;;;;5035519;28;20093;-63
2021/05/29 11:59:00;;;;;;;17.35;4.10;;;24.60;54.20;;;;;;5033718;28;20085;-63
2021/05/29 12:01:38;;;;;;;16.35;3.67;;;24.50;54.30;;;;;;5036925;28;20135;-63
2021/05/29 12:04:06;;;;;;;21.77;4.68;;;24.60;53.60;;;;;;5031541;28;20074;-63
2021/05/29 12:06:45;;;;;;;21.83;4.53;;;24.60;53.30;;;;;;5036627;28;20070;-64
2021/05/29 12:09:31;;;;;;;21.55;5.00;;;24.70;53.20;;;;;;5032077;28;20104;-63
2021/05/29 12:12:03;;;;;;;14.88;4.50;;;24.70;53.00;;;;;;5033083;28;20081;-65
2021/05/29 12:14:34;;;;;;;19.42;5.85;;;24.70;53.30;;;;;;5036184;28;20084;-64
2021/05/29 12:17:06;;;;;;;22.52;4.95;;;24.60;53.90;;;;;;5032664;28;20066;-63
2021/05/29 12:19:37;;;;;;;18.20;5.47;;;24.50;54.20;;;;;;5036650;28;20105;-63
2021/05/29 12:22:09;;;;;;;19.23;4.63;;;24.50;55.20;;;;;;5033519;28;20224;-63
2021/05/29 12:25:02;;;;;;;17.75;4.65;;;24.30;54.70;;;;;;5039391;28;20065;-63
2021/05/29 12:27:31;;;;;;;17.30;3.67;;;24.30;55.00;;;;;;5035205;28;20128;-63
2021/05/29 12:30:07;;;;;;;19.40;3.50;;;24.30;54.00;;;;;;5035825;28;20143;-64
2021/05/29 12:32:41;;;;;;;16.20;3.30;;;23.90;52.60;;;;;;5034978;28;20080;-64
2021/05/29 12:35:10;;;;;;;12.80;2.72;;;23.60;52.10;;;;;;5030411;28;20078;-64
2021/05/29 12:37:37;;;;;;;17.33;3.53;;;23.40;50.80;;;;;;5037427;28;20085;-64
2021/05/29 12:40:13;;;;;;;11.98;3.10;;;23.30;50.40;;;;;;5036453;28;21278;-63
2021/05/29 12:42:50;;;;;;;11.52;3.17;;;23.40;49.60;;;;;;5032584;28;20151;-64
2021/05/29 12:45:25;;;;;;;14.73;3.60;;;23.50;49.20;;;;;;5036646;28;20076;-64
2021/05/29 12:47:59;;;;;;;20.00;3.58;;;23.50;48.60;;;;;;5036724;28;20074;-63
2021/05/29 12:50:31;;;;;;;15.18;3.47;;;23.50;48.70;;;;;;5032885;28;20652;-64
2021/05/29 12:53:28;;;;;;;17.00;3.45;;;23.60;48.50;;;;;;5037047;28;20129;-64
2021/05/29 12:56:10;;;;;;;15.95;4.18;;;23.70;48.30;;;;;;5028931;28;20164;-64
2021/05/29 12:58:37;;;;;;;20.85;4.57;;;23.60;48.10;;;;;;5034335;28;20078;-64
2021/05/29 13:09:39;;;;;;;20.73;3.70;;;23.40;49.10;;;;;;5041882;28;20144;-64
2021/05/29 13:12:24;;;;;;;19.48;3.92;;;23.20;48.90;;;;;;5041100;28;20088;-64
2021/05/29 13:14:50;;;;;;;16.80;3.80;;;23.10;49.10;;;;;;5043330;28;20069;-63